createdAt,value
2023-05-11T00:01:10.080Z,99.90
2023-05-11T00:03:37.579Z,99.90
2023-05-11T00:06:04.912Z,99.90
2023-05-11T00:08:32.296Z,99.90
2023-05-11T00:11:02.622Z,99.90
2023-05-11T00:13:30.187Z,99.90
2023-05-11T00:15:57.521Z,99.90
2023-05-11T00:18:24.871Z,99.90
2023-05-11T00:20:52.150Z,99.90
2023-05-11T00:23:19.433Z,99.90
2023-05-11T00:25:46.771Z,99.90
2023-05-11T00:28:14.140Z,99.90
2023-05-11T00:30:41.649Z,99.90
2023-05-11T00:33:08.970Z,99.90
2023-05-11T00:35:36.239Z,99.90
2023-05-11T00:38:03.777Z,99.90
2023-05-11T00:40:35.197Z,99.90
2023-05-11T00:43:02.515Z,99.90
2023-05-11T00:45:30.591Z,99.90
2023-05-11T00:47:58.803Z,99.90
2023-05-11T00:50:26.898Z,99.90
2023-05-11T00:52:55.442Z,99.90
2023-05-11T00:55:23.151Z,99.90
2023-05-11T00:57:50.871Z,99.90
2023-05-11T01:00:18.587Z,99.90
2023-05-11T01:02:46.385Z,99.90
2023-05-11T01:05:13.829Z,99.90
2023-05-11T01:07:41.499Z,99.90
2023-05-11T01:10:26.222Z,99.90
2023-05-11T01:13:14.137Z,99.90
2023-05-11T01:16:04.205Z,99.90
2023-05-11T01:18:40.540Z,99.90
2023-05-11T01:21:16.033Z,99.90
2023-05-11T01:23:45.814Z,99.90
2023-05-11T01:26:38.723Z,99.90
2023-05-11T01:29:21.467Z,99.90
2023-05-11T01:31:51.166Z,99.90
2023-05-11T01:34:22.818Z,99.90
2023-05-11T01:36:55.124Z,99.90
2023-05-11T01:39:36.320Z,99.90
2023-05-11T01:42:10.187Z,99.90
2023-05-11T01:44:44.615Z,99.90
2023-05-11T01:47:14.059Z,99.90
2023-05-11T01:49:44.410Z,99.90
2023-05-11T01:52:14.707Z,99.90
2023-05-11T01:54:44.689Z,99.90
2023-05-11T01:57:13.726Z,99.90
2023-05-11T01:59:41.519Z,99.90
2023-05-11T02:02:09.955Z,99.90
2023-05-11T02:04:39.177Z,99.90
2023-05-11T02:07:11.180Z,99.90
2023-05-11T02:09:39.645Z,99.90
2023-05-11T02:12:08.994Z,99.90
2023-05-11T02:14:39.446Z,99.90
2023-05-11T02:17:09.173Z,99.90
2023-05-11T02:19:38.007Z,99.90
2023-05-11T02:22:07.234Z,99.90
2023-05-11T02:24:36.115Z,99.90
2023-05-11T02:27:03.846Z,99.90
2023-05-11T02:29:31.382Z,99.90
2023-05-11T02:32:20.511Z,99.90
2023-05-11T02:35:06.640Z,99.90
2023-05-11T02:37:40.468Z,99.90
2023-05-11T02:40:17.256Z,99.90
2023-05-11T02:42:49.239Z,99.90
2023-05-11T02:45:17.892Z,99.90
2023-05-11T02:47:56.977Z,99.90
2023-05-11T02:50:30.731Z,99.90
2023-05-11T02:53:03.333Z,99.90
2023-05-11T02:55:32.335Z,99.90
2023-05-11T02:57:59.895Z,99.90
2023-05-11T03:00:27.677Z,99.90
2023-05-11T03:02:55.175Z,99.90
2023-05-11T03:05:24.437Z,99.90
2023-05-11T03:07:53.782Z,99.90
2023-05-11T03:10:22.701Z,99.90
2023-05-11T03:12:50.537Z,99.90
2023-05-11T03:15:18.630Z,99.90
2023-05-11T03:17:50.589Z,99.90
2023-05-11T03:20:19.779Z,99.90
2023-05-11T03:22:47.683Z,99.90
2023-05-11T03:25:17.404Z,99.90
2023-05-11T03:27:46.738Z,99.90
2023-05-11T03:30:16.984Z,99.90
2023-05-11T03:32:48.437Z,99.90
2023-05-11T03:35:16.015Z,99.90
2023-05-11T03:37:45.149Z,99.90
2023-05-11T03:40:17.108Z,99.90
2023-05-11T03:42:54.821Z,99.90
2023-05-11T03:45:24.939Z,99.90
2023-05-11T03:47:53.876Z,99.90
2023-05-11T03:50:22.481Z,99.90
2023-05-11T03:52:51.046Z,99.90
2023-05-11T03:55:18.499Z,99.90
2023-05-11T03:57:47.230Z,99.90
2023-05-11T04:00:15.016Z,99.90
2023-05-11T04:02:45.993Z,99.90
2023-05-11T04:05:13.986Z,99.90
2023-05-11T04:07:45.063Z,99.90
2023-05-11T04:10:12.724Z,99.90
2023-05-11T04:12:39.956Z,99.90
2023-05-11T04:15:07.909Z,99.90
2023-05-11T04:17:35.245Z,99.90
2023-05-11T04:20:02.676Z,99.90
2023-05-11T04:22:30.044Z,99.90
2023-05-11T04:24:57.400Z,99.90
2023-05-11T04:27:24.602Z,99.90
2023-05-11T04:29:51.910Z,99.90
2023-05-11T04:32:19.200Z,99.90
2023-05-11T04:34:46.591Z,99.90
2023-05-11T04:37:16.434Z,99.90
2023-05-11T04:39:43.826Z,99.90
2023-05-11T04:42:12.318Z,99.90
2023-05-11T04:44:40.774Z,99.90
2023-05-11T04:47:08.195Z,99.90
2023-05-11T04:49:36.058Z,99.90
2023-05-11T04:52:03.647Z,99.90
2023-05-11T04:54:31.729Z,99.90
2023-05-11T04:56:59.152Z,99.90
2023-05-11T04:59:26.417Z,99.90
2023-05-11T05:01:53.738Z,99.90
2023-05-11T05:04:21.333Z,99.90
2023-05-11T05:06:48.661Z,99.90
2023-05-11T05:09:16.596Z,99.90
2023-05-11T05:11:44.231Z,99.90
2023-05-11T05:14:12.351Z,99.90
2023-05-11T05:16:39.544Z,99.90
2023-05-11T05:19:06.796Z,99.90
2023-05-11T05:21:35.942Z,99.20
2023-05-11T05:24:07.027Z,98.70
2023-05-11T05:26:34.254Z,98.50
2023-05-11T05:29:01.990Z,98.10
2023-05-11T05:31:30.308Z,98.00
2023-05-11T05:33:57.710Z,97.40
2023-05-11T05:36:25.441Z,97.30
2023-05-11T05:38:52.660Z,97.30
2023-05-11T05:41:19.969Z,96.80
2023-05-11T05:43:47.104Z,96.00
2023-05-11T05:46:15.123Z,95.50
2023-05-11T05:48:42.449Z,95.10
2023-05-11T05:51:10.026Z,94.40
2023-05-11T05:53:37.953Z,92.20
2023-05-11T05:56:05.629Z,91.70
2023-05-11T05:58:32.874Z,92.20
2023-05-11T06:01:01.556Z,91.50
2023-05-11T06:03:29.831Z,91.30
2023-05-11T06:05:57.756Z,91.00
2023-05-11T06:08:25.193Z,89.90
2023-05-11T06:10:52.445Z,89.90
2023-05-11T06:13:19.682Z,88.70
2023-05-11T06:15:47.513Z,87.20
2023-05-11T06:18:23.797Z,87.50
2023-05-11T06:20:51.843Z,85.80
2023-05-11T06:23:19.490Z,85.50
2023-05-11T06:25:47.719Z,84.90
2023-05-11T06:28:15.153Z,84.00
2023-05-11T06:30:42.650Z,83.60
2023-05-11T06:33:10.410Z,83.20
2023-05-11T06:35:39.748Z,82.30
2023-05-11T06:38:09.245Z,81.60
2023-05-11T06:40:37.113Z,81.40
2023-05-11T06:43:04.610Z,81.60
2023-05-11T06:45:46.895Z,81.30
2023-05-11T06:48:15.167Z,80.00
2023-05-11T06:50:42.391Z,79.80
2023-05-11T06:53:13.712Z,78.00
2023-05-11T06:55:41.592Z,76.80
2023-05-11T06:58:08.873Z,75.80
2023-05-11T07:00:36.095Z,75.20
2023-05-11T07:03:03.371Z,74.00
2023-05-11T07:05:30.716Z,73.70
2023-05-11T07:07:58.307Z,74.10
2023-05-11T07:10:26.336Z,74.30
2023-05-11T07:12:53.608Z,74.10
2023-05-11T07:15:20.963Z,74.50
2023-05-11T07:17:48.213Z,73.80
2023-05-11T07:20:15.620Z,73.40
2023-05-11T07:22:42.852Z,74.00
2023-05-11T07:25:10.438Z,74.30
2023-05-11T07:27:37.835Z,74.30
2023-05-11T07:30:05.744Z,73.10
2023-05-11T07:32:33.337Z,74.20
2023-05-11T07:35:00.622Z,73.60
2023-05-11T07:37:27.832Z,72.50
2023-05-11T07:39:55.035Z,71.90
2023-05-11T07:42:22.225Z,71.90
2023-05-11T07:44:49.387Z,70.50
2023-05-11T07:47:19.043Z,70.30
2023-05-11T07:49:47.525Z,70.40
2023-05-11T07:52:14.917Z,70.20
2023-05-11T07:54:42.211Z,69.40
2023-05-11T07:57:11.419Z,68.40
2023-05-11T07:59:38.840Z,68.90
2023-05-11T08:02:09.024Z,66.90
2023-05-11T08:04:37.643Z,66.10
2023-05-11T08:07:05.143Z,65.50
2023-05-11T08:09:32.412Z,64.70
2023-05-11T08:12:01.757Z,64.00
2023-05-11T08:14:29.175Z,62.40
2023-05-11T08:16:56.396Z,61.90
2023-05-11T08:19:23.668Z,61.60
2023-05-11T08:21:51.052Z,60.10
2023-05-11T08:24:18.367Z,60.20
2023-05-11T08:26:45.625Z,61.00
2023-05-11T08:29:12.966Z,60.60
2023-05-11T08:31:40.492Z,60.40
2023-05-11T08:36:41.620Z,58.80
2023-05-11T08:39:09.085Z,57.90
2023-05-11T08:41:36.371Z,55.80
2023-05-11T08:44:04.033Z,55.20
2023-05-11T08:46:35.953Z,55.90
2023-05-11T08:49:03.454Z,56.00
2023-05-11T08:51:30.838Z,55.60
2023-05-11T08:53:59.880Z,53.80
2023-05-11T08:56:29.454Z,53.50
2023-05-11T08:58:57.819Z,53.40
2023-05-11T09:01:29.218Z,53.30
2023-05-11T09:03:58.367Z,52.90
2023-05-11T09:06:27.616Z,51.70
2023-05-11T09:08:55.248Z,51.00
2023-05-11T09:11:23.047Z,50.10
2023-05-11T09:13:51.212Z,54.20
2023-05-11T09:16:32.998Z,59.80
2023-05-11T09:19:04.042Z,61.50
2023-05-11T09:21:32.083Z,60.90
2023-05-11T09:23:59.596Z,61.40
2023-05-11T09:26:29.415Z,60.80
2023-05-11T09:31:41.685Z,61.50
2023-05-11T09:34:20.123Z,61.20
2023-05-11T09:36:49.853Z,59.70
2023-05-11T09:39:35.110Z,59.50
2023-05-11T09:42:15.992Z,59.50
2023-05-11T09:44:45.166Z,59.40
2023-05-11T09:47:17.620Z,59.30
2023-05-11T09:49:46.568Z,59.50
2023-05-11T09:52:18.316Z,59.60
2023-05-11T09:54:46.994Z,59.70
2023-05-11T09:57:24.475Z,58.70
2023-05-11T09:59:52.536Z,58.20
2023-05-11T10:02:28.398Z,58.40
2023-05-11T10:05:00.433Z,59.10
2023-05-11T10:07:35.849Z,59.50
2023-05-11T10:10:06.025Z,59.50
2023-05-11T10:12:34.572Z,58.70
2023-05-11T10:15:04.210Z,58.10
2023-05-11T10:17:32.053Z,58.30
2023-05-11T10:20:00.330Z,58.20
2023-05-11T10:22:29.368Z,59.10
2023-05-11T10:24:58.433Z,58.90
2023-05-11T10:27:26.318Z,59.60
2023-05-11T10:29:53.767Z,59.30
2023-05-11T10:32:21.592Z,59.00
2023-05-11T10:34:50.629Z,56.90
2023-05-11T10:37:18.465Z,55.50
2023-05-11T10:39:49.922Z,55.10
2023-05-11T10:42:29.673Z,54.40
2023-05-11T10:45:09.146Z,53.60
2023-05-11T10:47:45.650Z,54.10
2023-05-11T10:50:43.203Z,54.40
2023-05-11T10:53:22.922Z,53.70
2023-05-11T10:56:10.275Z,53.20
2023-05-11T10:58:59.000Z,51.60
2023-05-11T11:01:39.677Z,51.30
2023-05-11T11:04:09.332Z,50.10
2023-05-11T11:06:42.088Z,49.30
2023-05-11T11:09:15.791Z,48.60
2023-05-11T11:11:46.274Z,48.40
2023-05-11T11:14:15.980Z,48.20
2023-05-11T11:17:18.250Z,47.70
2023-05-11T11:19:46.158Z,46.50
2023-05-11T11:22:35.449Z,45.50
2023-05-11T11:25:08.058Z,46.60
2023-05-11T11:27:41.421Z,46.80
2023-05-11T11:30:29.825Z,46.80
2023-05-11T11:33:17.002Z,47.00
2023-05-11T11:35:47.098Z,47.90
2023-05-11T11:38:18.977Z,47.60
2023-05-11T11:40:52.985Z,47.90
2023-05-11T11:43:29.216Z,47.00
2023-05-11T11:46:01.149Z,45.50
2023-05-11T11:48:35.530Z,45.50
2023-05-11T11:51:03.280Z,46.00
2023-05-11T11:53:37.747Z,47.00
2023-05-11T11:56:07.597Z,47.20
2023-05-11T11:58:46.790Z,46.70
2023-05-11T12:01:18.246Z,46.20
2023-05-11T12:03:47.885Z,46.10
2023-05-11T12:06:21.216Z,46.20
2023-05-11T12:08:49.579Z,45.70
2023-05-11T12:11:18.951Z,45.20
2023-05-11T12:13:46.875Z,45.00
2023-05-11T12:16:16.273Z,45.60
2023-05-11T12:18:59.169Z,46.20
2023-05-11T12:21:33.794Z,46.00
2023-05-11T12:24:05.673Z,45.70
2023-05-11T12:26:34.453Z,44.80
2023-05-11T12:29:09.984Z,45.10
2023-05-11T12:31:38.462Z,44.40
2023-05-11T12:34:05.980Z,43.60
2023-05-11T12:36:35.222Z,44.20
2023-05-11T12:39:02.451Z,42.70
2023-05-11T12:41:29.821Z,43.90
2023-05-11T12:43:57.346Z,44.80
2023-05-11T12:46:24.969Z,45.70
2023-05-11T12:48:52.646Z,49.10
2023-05-11T12:51:45.640Z,52.30
2023-05-11T12:54:24.079Z,54.90
2023-05-11T12:56:51.775Z,54.30
2023-05-11T12:59:29.621Z,53.60
2023-05-11T13:02:17.379Z,52.40
2023-05-11T13:04:45.841Z,53.90
2023-05-11T13:07:15.147Z,58.50
2023-05-11T13:09:42.761Z,54.30
2023-05-11T13:12:19.026Z,55.80
2023-05-11T13:14:48.460Z,57.50
2023-05-11T13:17:31.267Z,56.50
2023-05-11T13:20:27.646Z,56.60
2023-05-11T13:23:13.377Z,51.80
2023-05-11T13:25:47.393Z,52.00
2023-05-11T13:28:19.390Z,53.20
2023-05-11T13:30:47.099Z,52.60
2023-05-11T13:33:14.540Z,52.70
2023-05-11T13:35:42.787Z,53.40
2023-05-11T13:38:11.292Z,55.10
2023-05-11T13:40:39.153Z,56.80
2023-05-11T13:43:07.557Z,56.80
2023-05-11T13:45:36.535Z,54.60
2023-05-11T13:48:04.058Z,54.90
2023-05-11T13:50:32.343Z,54.10
2023-05-11T13:52:59.537Z,54.20
2023-05-11T13:55:26.888Z,52.60
2023-05-11T13:57:55.164Z,53.70
2023-05-11T14:00:22.558Z,54.70
2023-05-11T14:02:50.799Z,54.90
2023-05-11T14:05:18.554Z,54.70
2023-05-11T14:07:47.809Z,54.30
2023-05-11T14:10:17.487Z,53.40
2023-05-11T14:12:45.644Z,50.50
2023-05-11T14:15:12.990Z,50.80
2023-05-11T14:17:43.090Z,50.30
2023-05-11T14:20:12.687Z,53.90
2023-05-11T14:22:41.146Z,54.60
2023-05-11T14:25:08.906Z,58.60
2023-05-11T14:27:36.423Z,61.70
2023-05-11T14:30:03.996Z,63.40
2023-05-11T14:32:31.212Z,65.00
2023-05-11T14:34:58.416Z,65.00
2023-05-11T14:37:25.914Z,65.60
2023-05-11T14:39:53.094Z,66.80
2023-05-11T14:42:20.583Z,67.00
2023-05-11T14:44:47.787Z,67.30
2023-05-11T14:47:15.674Z,67.60
2023-05-11T14:49:42.855Z,65.90
2023-05-11T14:52:10.800Z,65.80
2023-05-11T14:54:38.200Z,67.60
2023-05-11T14:57:06.217Z,68.40
2023-05-11T14:59:33.458Z,68.30
2023-05-11T15:02:00.861Z,67.60
2023-05-11T15:04:28.283Z,67.50
2023-05-11T15:06:56.182Z,67.90
2023-05-11T15:09:24.213Z,67.30
2023-05-11T15:11:51.524Z,67.00
2023-05-11T15:14:18.662Z,66.60
2023-05-11T15:16:46.455Z,66.00
2023-05-11T15:19:14.191Z,66.00
2023-05-11T15:21:41.366Z,69.10
2023-05-11T15:24:10.828Z,68.00
2023-05-11T15:26:38.526Z,67.10
2023-05-11T15:29:05.756Z,68.10
2023-05-11T15:31:33.315Z,67.60
2023-05-11T15:34:01.355Z,67.00
2023-05-11T15:36:29.909Z,68.30
2023-05-11T15:38:58.079Z,67.80
2023-05-11T15:41:25.572Z,67.20
2023-05-11T15:43:53.462Z,66.00
2023-05-11T15:46:20.682Z,65.80
2023-05-11T15:48:47.950Z,65.50
2023-05-11T15:51:15.125Z,65.70
2023-05-11T15:53:42.490Z,66.20
2023-05-11T15:56:09.872Z,67.40
2023-05-11T15:58:37.110Z,67.30
2023-05-11T16:01:04.413Z,67.70
2023-05-11T16:03:32.529Z,68.00
2023-05-11T16:06:00.114Z,68.10
2023-05-11T16:08:27.347Z,68.50
2023-05-11T16:10:54.554Z,68.60
2023-05-11T16:13:22.033Z,69.20
2023-05-11T16:15:49.370Z,69.00
2023-05-11T16:18:17.295Z,70.30
2023-05-11T16:20:47.270Z,70.90
2023-05-11T16:23:14.426Z,71.30
2023-05-11T16:25:41.735Z,71.00
2023-05-11T16:28:09.082Z,71.80
2023-05-11T16:30:38.455Z,71.30
2023-05-11T16:33:06.971Z,71.70
2023-05-11T16:35:34.135Z,71.90
2023-05-11T16:38:01.389Z,73.00
2023-05-11T16:40:28.667Z,73.30
2023-05-11T16:42:55.927Z,73.60
2023-05-11T16:45:23.140Z,74.20
2023-05-11T16:47:50.348Z,74.40
2023-05-11T16:50:19.238Z,74.80
2023-05-11T16:52:46.606Z,75.10
2023-05-11T16:55:16.184Z,74.90
2023-05-11T16:57:44.603Z,74.70
2023-05-11T17:00:13.537Z,74.50
2023-05-11T17:02:41.192Z,76.20
2023-05-11T17:05:08.974Z,77.20
2023-05-11T17:07:36.240Z,78.00
2023-05-11T17:10:03.630Z,78.00
2023-05-11T17:12:31.920Z,78.50
2023-05-11T17:14:59.130Z,78.50
2023-05-11T17:17:26.389Z,78.90
2023-05-11T17:19:54.414Z,79.40
2023-05-11T17:22:21.672Z,79.80
2023-05-11T17:24:49.072Z,80.10
2023-05-11T17:27:16.457Z,80.30
2023-05-11T17:29:43.905Z,81.00
2023-05-11T17:32:11.220Z,81.90
2023-05-11T17:34:40.675Z,82.00
2023-05-11T17:37:12.652Z,82.00
2023-05-11T17:39:47.197Z,82.10
2023-05-11T17:42:15.633Z,83.00
2023-05-11T17:44:42.898Z,83.70
2023-05-11T17:47:10.287Z,83.90
2023-05-11T17:49:37.612Z,84.60
2023-05-11T17:52:05.001Z,85.30
2023-05-11T17:54:32.250Z,86.00
2023-05-11T17:56:59.384Z,87.00
2023-05-11T17:59:27.340Z,87.30
2023-05-11T18:01:54.526Z,87.40
2023-05-11T18:04:21.783Z,86.90
2023-05-11T18:06:49.584Z,86.20
2023-05-11T18:09:18.940Z,86.50
2023-05-11T18:11:46.104Z,86.40
2023-05-11T18:14:13.336Z,86.20
2023-05-11T18:16:40.548Z,86.30
2023-05-11T18:19:07.827Z,85.80
2023-05-11T18:21:36.350Z,85.50
2023-05-11T18:24:04.875Z,85.40
2023-05-11T18:26:32.110Z,85.20
2023-05-11T18:29:00.423Z,84.70
2023-05-11T18:31:28.957Z,83.70
2023-05-11T18:33:57.032Z,83.50
2023-05-11T18:36:24.308Z,83.20
2023-05-11T18:38:52.246Z,82.20
2023-05-11T18:41:19.592Z,82.30
2023-05-11T18:43:48.511Z,81.90
2023-05-11T18:46:15.782Z,81.30
2023-05-11T18:48:42.883Z,80.00
2023-05-11T18:51:10.301Z,78.60
2023-05-11T18:53:37.694Z,77.80
2023-05-11T18:56:05.080Z,77.30
2023-05-11T18:58:32.466Z,77.00
2023-05-11T19:00:59.608Z,76.60
2023-05-11T19:03:27.059Z,76.50
2023-05-11T19:05:54.342Z,76.30
2023-05-11T19:08:21.649Z,76.00
2023-05-11T19:10:49.575Z,75.70
2023-05-11T19:13:17.308Z,75.50
2023-05-11T19:15:44.672Z,75.80
2023-05-11T19:18:12.183Z,75.80
2023-05-11T19:20:48.092Z,76.20
2023-05-11T19:23:18.136Z,75.60
2023-05-11T19:25:45.765Z,75.00
2023-05-11T19:28:16.073Z,75.10
2023-05-11T19:30:44.432Z,75.20
2023-05-11T19:33:12.216Z,74.70
2023-05-11T19:35:39.599Z,74.70
2023-05-11T19:38:07.395Z,74.50
2023-05-11T19:40:45.456Z,74.30
2023-05-11T19:43:13.648Z,74.30
2023-05-11T19:45:45.458Z,74.10
2023-05-11T19:48:13.946Z,73.90
2023-05-11T19:50:42.188Z,74.00
2023-05-11T19:53:12.535Z,74.20
2023-05-11T19:55:41.140Z,74.60
2023-05-11T19:58:08.270Z,75.10
2023-05-11T20:00:35.728Z,75.30
2023-05-11T20:03:04.152Z,75.60
2023-05-11T20:05:34.459Z,75.90
2023-05-11T20:08:04.193Z,76.20
2023-05-11T20:10:34.843Z,76.40
2023-05-11T20:13:22.620Z,76.80
2023-05-11T20:15:50.481Z,76.70
2023-05-11T20:18:18.915Z,76.50
2023-05-11T20:20:46.200Z,76.40
2023-05-11T20:23:13.668Z,75.90
2023-05-11T20:25:43.962Z,75.70
2023-05-11T20:28:12.967Z,75.90
2023-05-11T20:30:40.197Z,78.60
2023-05-11T20:35:41.596Z,85.80
2023-05-11T20:38:10.187Z,87.30
2023-05-11T20:40:38.013Z,88.70
2023-05-11T20:43:05.227Z,89.30
2023-05-11T20:45:35.680Z,89.20
2023-05-11T20:48:05.294Z,89.10
2023-05-11T20:50:32.571Z,89.20
2023-05-11T20:52:59.786Z,89.30
2023-05-11T20:55:26.984Z,89.40
2023-05-11T20:57:55.633Z,89.70
2023-05-11T21:00:23.215Z,89.90
2023-05-11T21:02:50.693Z,90.10
2023-05-11T21:05:18.139Z,90.40
2023-05-11T21:07:45.251Z,91.00
2023-05-11T21:10:12.848Z,91.20
2023-05-11T21:12:40.068Z,91.70
2023-05-11T21:15:07.784Z,92.50
2023-05-11T21:17:35.862Z,92.00
2023-05-11T21:20:05.228Z,91.80
2023-05-11T21:22:33.610Z,91.80
2023-05-11T21:25:01.239Z,92.20
2023-05-11T21:27:28.524Z,92.10
2023-05-11T21:29:56.442Z,92.00
2023-05-11T21:32:24.267Z,91.70
2023-05-11T21:34:51.633Z,90.30
2023-05-11T21:37:21.132Z,89.50
2023-05-11T21:39:48.768Z,89.20
2023-05-11T21:42:16.161Z,88.10
2023-05-11T21:44:43.521Z,87.30
2023-05-11T21:47:10.731Z,86.80
2023-05-11T21:49:40.233Z,86.60
2023-05-11T21:52:07.648Z,86.30
2023-05-11T21:54:34.857Z,86.50
2023-05-11T21:57:03.833Z,86.50
2023-05-11T21:59:31.197Z,86.70
2023-05-11T22:01:58.463Z,86.80
2023-05-11T22:04:27.247Z,87.00
2023-05-11T22:07:00.867Z,87.10
2023-05-11T22:09:28.726Z,87.10
2023-05-11T22:11:55.909Z,87.00
2023-05-11T22:14:24.227Z,87.10
2023-05-11T22:16:52.138Z,87.00
2023-05-11T22:19:21.518Z,87.10
2023-05-11T22:21:49.334Z,87.50
2023-05-11T22:24:16.801Z,88.10
2023-05-11T22:26:44.081Z,88.50
2023-05-11T22:29:11.385Z,88.30
2023-05-11T22:31:38.606Z,88.90
2023-05-11T22:34:06.224Z,89.00
2023-05-11T22:36:34.004Z,89.20
2023-05-11T22:39:02.186Z,89.40
2023-05-11T22:41:32.192Z,89.50
2023-05-11T22:44:00.169Z,89.50
2023-05-11T22:46:27.343Z,89.50
2023-05-11T22:48:57.394Z,89.50
2023-05-11T22:51:24.604Z,89.30
2023-05-11T22:53:52.276Z,89.40
2023-05-11T22:56:20.010Z,89.40
2023-05-11T22:58:49.235Z,89.30
2023-05-11T23:01:16.620Z,89.10
2023-05-11T23:03:43.753Z,89.20
2023-05-11T23:06:11.650Z,89.20
2023-05-11T23:08:39.440Z,89.10
2023-05-11T23:11:07.700Z,89.10
2023-05-11T23:13:35.048Z,89.20
2023-05-11T23:16:05.154Z,89.40
2023-05-11T23:18:33.127Z,89.50
2023-05-11T23:21:00.453Z,89.70
2023-05-11T23:23:27.851Z,89.70
2023-05-11T23:25:55.083Z,89.70
2023-05-11T23:28:22.224Z,89.80
2023-05-11T23:30:49.867Z,89.80
2023-05-11T23:33:19.267Z,90.00
2023-05-11T23:35:48.029Z,90.00
2023-05-11T23:38:15.401Z,89.90
2023-05-11T23:40:43.225Z,90.10
2023-05-11T23:43:10.602Z,90.10
2023-05-11T23:45:37.829Z,90.10
2023-05-11T23:48:05.444Z,90.20
2023-05-11T23:50:32.676Z,90.20
2023-05-11T23:52:59.890Z,90.40
2023-05-11T23:55:27.142Z,90.60
2023-05-11T23:58:02.499Z,90.80
